createdAt,value
2022-11-04T00:01:31.144Z,14.00
2022-11-04T00:04:04.494Z,13.38
2022-11-04T00:06:33.140Z,13.13
2022-11-04T00:09:01.239Z,12.43
2022-11-04T00:11:47.851Z,13.25
2022-11-04T00:14:16.609Z,12.57
2022-11-04T00:17:04.826Z,13.25
2022-11-04T00:19:51.559Z,13.52
2022-11-04T00:22:37.238Z,12.20
2022-11-04T00:25:24.040Z,11.38
2022-11-04T00:28:11.947Z,11.82
2022-11-04T00:30:58.370Z,11.60
2022-11-04T00:33:28.635Z,12.48
2022-11-04T00:35:57.746Z,12.27
2022-11-04T00:38:25.911Z,12.55
2022-11-04T00:40:55.078Z,13.57
2022-11-04T00:43:22.074Z,11.93
2022-11-04T00:45:51.016Z,11.55
2022-11-04T00:48:17.971Z,11.63
2022-11-04T00:50:45.992Z,10.82
2022-11-04T00:53:20.235Z,12.55
2022-11-04T00:55:48.214Z,12.63
2022-11-04T00:58:15.096Z,11.85
2022-11-04T01:00:42.231Z,12.10
2022-11-04T01:03:34.345Z,12.35
2022-11-04T01:06:02.449Z,12.45
2022-11-04T01:08:30.615Z,13.20
2022-11-04T01:10:57.541Z,12.10
2022-11-04T01:13:24.706Z,11.82
2022-11-04T01:15:51.659Z,12.50
2022-11-04T01:18:18.640Z,12.90
2022-11-04T01:20:47.581Z,12.35
2022-11-04T01:23:14.709Z,12.18
2022-11-04T01:25:46.248Z,13.18
2022-11-04T01:28:13.414Z,12.98
2022-11-04T01:30:40.479Z,12.20
2022-11-04T01:33:07.634Z,13.15
2022-11-04T01:35:41.586Z,12.15
2022-11-04T01:38:10.013Z,13.05
2022-11-04T01:40:38.989Z,12.98
2022-11-04T01:43:45.624Z,13.85
2022-11-04T01:46:26.124Z,12.73
2022-11-04T01:49:07.699Z,12.20
2022-11-04T01:51:45.300Z,13.35
2022-11-04T01:54:21.860Z,12.55
2022-11-04T01:56:50.569Z,12.95
2022-11-04T01:59:29.075Z,11.52
2022-11-04T02:01:58.198Z,11.88
2022-11-04T02:04:27.095Z,10.98
2022-11-04T02:07:01.423Z,10.90
2022-11-04T02:09:31.069Z,9.77
2022-11-04T02:12:24.062Z,11.75
2022-11-04T02:14:54.230Z,10.95
2022-11-04T02:17:34.620Z,10.68
2022-11-04T02:20:21.798Z,10.65
2022-11-04T02:23:08.143Z,11.57
2022-11-04T02:25:58.365Z,10.45
2022-11-04T02:28:31.710Z,9.98
2022-11-04T02:31:16.868Z,10.32
2022-11-04T02:33:51.218Z,10.70
2022-11-04T02:36:29.736Z,9.98
2022-11-04T02:39:20.149Z,10.73
2022-11-04T02:41:53.150Z,8.93
2022-11-04T02:44:46.363Z,9.88
2022-11-04T02:47:20.129Z,10.55
2022-11-04T02:52:53.820Z,9.90
2022-11-04T02:55:27.448Z,10.27
2022-11-04T02:58:11.369Z,11.15
2022-11-04T03:00:42.219Z,11.10
2022-11-04T03:03:25.952Z,10.82
2022-11-04T03:06:03.224Z,11.02
2022-11-04T03:08:39.261Z,12.75
2022-11-04T03:11:15.525Z,11.38
2022-11-04T03:13:54.959Z,12.73
2022-11-04T03:16:56.503Z,11.48
2022-11-04T03:20:00.310Z,11.57
2022-11-04T03:22:35.969Z,11.55
2022-11-04T03:25:06.494Z,12.27
2022-11-04T03:27:46.110Z,11.98
2022-11-04T03:30:23.653Z,12.07
2022-11-04T03:33:07.279Z,12.32
2022-11-04T03:35:34.707Z,12.18
2022-11-04T03:38:05.031Z,12.75
2022-11-04T03:40:32.094Z,12.10
2022-11-04T03:43:26.148Z,11.90
2022-11-04T03:45:59.596Z,12.20
2022-11-04T03:48:31.759Z,12.32
2022-11-04T03:51:02.232Z,12.52
2022-11-04T03:53:30.526Z,12.07
2022-11-04T03:56:21.838Z,12.30
2022-11-04T03:59:22.875Z,11.88
2022-11-04T04:01:55.248Z,12.60
2022-11-04T04:04:27.300Z,11.43
2022-11-04T04:07:33.820Z,12.30
2022-11-04T04:10:42.306Z,12.23
2022-11-04T04:13:51.370Z,11.75
2022-11-04T04:16:46.179Z,11.40
2022-11-04T04:19:36.419Z,11.45
2022-11-04T04:22:24.967Z,10.80
2022-11-04T04:25:24.939Z,12.07
2022-11-04T04:28:00.904Z,11.65
2022-11-04T04:30:35.669Z,11.90
2022-11-04T04:33:31.164Z,11.50
2022-11-04T04:35:59.460Z,10.35
2022-11-04T04:38:48.239Z,10.73
2022-11-04T04:41:47.262Z,11.60
2022-11-04T04:44:51.208Z,11.00
2022-11-04T04:47:25.125Z,10.93
2022-11-04T04:50:00.700Z,10.57
2022-11-04T04:52:35.020Z,10.48
2022-11-04T04:55:01.980Z,10.18
2022-11-04T04:57:37.379Z,9.18
2022-11-04T05:00:08.299Z,10.80
2022-11-04T05:02:38.355Z,10.98
2022-11-04T05:05:06.290Z,10.82
2022-11-04T05:07:33.312Z,10.35
2022-11-04T05:10:00.549Z,11.38
2022-11-04T05:12:48.664Z,11.05
2022-11-04T05:15:16.994Z,11.45
2022-11-04T05:17:59.908Z,10.57
2022-11-04T05:20:34.548Z,10.45
2022-11-04T05:23:01.741Z,10.20
2022-11-04T05:25:32.057Z,9.20
2022-11-04T05:28:03.124Z,10.98
2022-11-04T05:30:42.702Z,10.38
2022-11-04T05:33:10.354Z,10.30
2022-11-04T05:35:43.648Z,10.10
2022-11-04T05:38:11.585Z,10.63
2022-11-04T05:40:44.444Z,10.50
2022-11-04T05:43:11.646Z,11.20
2022-11-04T05:45:40.687Z,10.90
2022-11-04T05:48:08.716Z,10.95
2022-11-04T05:50:35.681Z,10.75
2022-11-04T05:53:12.993Z,11.63
2022-11-04T05:55:40.163Z,12.93
2022-11-04T05:58:07.465Z,11.98
2022-11-04T06:00:34.688Z,12.48
2022-11-04T06:03:02.001Z,12.68
2022-11-04T06:05:41.998Z,12.45
2022-11-04T06:08:09.058Z,12.07
2022-11-04T06:10:44.085Z,13.00
2022-11-04T06:13:11.919Z,12.35
2022-11-04T06:15:39.896Z,12.75
2022-11-04T06:18:07.004Z,13.75
2022-11-04T06:20:37.250Z,13.35
2022-11-04T06:23:04.822Z,13.63
2022-11-04T06:25:31.765Z,13.70
2022-11-04T06:27:58.921Z,13.07
2022-11-04T06:30:26.064Z,13.73
2022-11-04T06:32:54.430Z,14.63
2022-11-04T06:35:21.463Z,13.70
2022-11-04T06:37:48.489Z,13.07
2022-11-04T06:40:18.505Z,13.98
2022-11-04T06:42:51.558Z,13.07
2022-11-04T06:45:21.898Z,13.90
2022-11-04T06:47:48.781Z,13.40
2022-11-04T06:50:15.718Z,13.60
2022-11-04T06:52:45.797Z,13.15
2022-11-04T06:55:17.791Z,12.85
2022-11-04T06:57:44.798Z,13.05
2022-11-04T07:00:12.258Z,12.40
2022-11-04T07:02:40.461Z,12.98
2022-11-04T07:05:10.000Z,12.90
2022-11-04T07:07:37.169Z,13.55
2022-11-04T07:10:05.451Z,13.30
2022-11-04T07:12:32.380Z,13.65
2022-11-04T07:14:59.515Z,13.00
2022-11-04T07:17:26.819Z,13.30
2022-11-04T07:19:54.984Z,13.35
2022-11-04T07:22:23.205Z,12.43
2022-11-04T07:24:53.419Z,12.63
2022-11-04T07:27:20.411Z,13.70
2022-11-04T07:30:11.058Z,13.25
2022-11-04T07:32:37.945Z,13.52
2022-11-04T07:35:06.516Z,13.30
2022-11-04T07:37:33.709Z,13.52
2022-11-04T07:40:05.676Z,13.15
2022-11-04T07:42:32.844Z,13.05
2022-11-04T07:44:59.976Z,13.00
2022-11-04T07:47:31.398Z,12.07
2022-11-04T07:49:58.443Z,12.50
2022-11-04T07:52:25.866Z,12.50
2022-11-04T07:54:54.047Z,12.35
2022-11-04T07:57:24.244Z,13.88
2022-11-04T07:59:55.411Z,13.52
2022-11-04T08:02:35.053Z,13.15
2022-11-04T08:05:15.083Z,13.57
2022-11-04T08:07:42.369Z,13.95
2022-11-04T08:10:10.742Z,13.95
2022-11-04T08:12:38.544Z,14.13
2022-11-04T08:15:06.014Z,13.82
2022-11-04T08:17:33.914Z,13.70
2022-11-04T08:20:05.962Z,13.77
2022-11-04T08:22:34.766Z,15.70
2022-11-04T08:25:04.376Z,14.63
2022-11-04T08:27:49.628Z,15.43
2022-11-04T08:30:18.683Z,15.55
2022-11-04T08:32:46.703Z,15.77
2022-11-04T08:35:17.030Z,15.57
2022-11-04T08:37:47.135Z,15.40
2022-11-04T08:40:14.174Z,16.70
2022-11-04T08:42:47.930Z,17.27
2022-11-04T08:47:43.039Z,16.00
2022-11-04T08:50:11.781Z,15.82
2022-11-04T08:52:40.794Z,17.30
2022-11-04T08:55:13.921Z,19.10
2022-11-04T08:57:40.908Z,18.63
2022-11-04T09:00:14.415Z,20.52
2022-11-04T09:02:43.602Z,20.77
2022-11-04T09:05:16.603Z,22.27
2022-11-04T09:07:48.744Z,20.30
2022-11-04T09:10:17.843Z,21.13
2022-11-04T09:12:45.619Z,16.60
2022-11-04T09:15:13.992Z,21.30
2022-11-04T09:17:46.211Z,21.35
2022-11-04T09:20:16.397Z,21.67
2022-11-04T09:22:46.061Z,19.27
2022-11-04T09:25:16.234Z,20.85
2022-11-04T09:27:43.179Z,21.60
2022-11-04T09:30:11.780Z,20.70
2022-11-04T09:32:49.979Z,19.52
2022-11-04T09:35:20.724Z,19.92
2022-11-04T09:38:02.168Z,19.35
2022-11-04T09:40:38.319Z,19.27
2022-11-04T09:43:35.339Z,18.73
2022-11-04T09:46:12.345Z,18.27
2022-11-04T09:48:47.540Z,18.17
2022-11-04T09:51:52.654Z,16.88
2022-11-04T09:54:23.570Z,17.05
2022-11-04T09:56:55.786Z,16.92
2022-11-04T09:59:36.310Z,17.55
2022-11-04T10:02:28.823Z,16.73
2022-11-04T10:05:12.519Z,13.05
2022-11-04T10:07:55.968Z,16.08
2022-11-04T10:10:38.155Z,14.98
2022-11-04T10:13:57.805Z,15.75
2022-11-04T10:16:45.731Z,15.50
2022-11-04T10:19:27.609Z,16.30
2022-11-04T10:22:05.383Z,14.98
2022-11-04T10:24:48.955Z,14.82
2022-11-04T10:27:24.520Z,14.68
2022-11-04T10:30:02.281Z,13.98
2022-11-04T10:32:35.141Z,12.73
2022-11-04T10:35:13.780Z,14.07
2022-11-04T10:37:42.884Z,13.50
2022-11-04T10:40:26.095Z,12.75
2022-11-04T10:43:02.359Z,12.93
2022-11-04T10:45:41.992Z,12.68
2022-11-04T10:48:50.202Z,12.48
2022-11-04T10:51:22.357Z,11.63
2022-11-04T10:54:03.775Z,12.38
2022-11-04T10:56:34.354Z,12.05
2022-11-04T10:59:20.505Z,11.88
2022-11-04T11:01:58.137Z,10.75
2022-11-04T11:04:37.360Z,10.95
2022-11-04T11:07:10.995Z,10.15
2022-11-04T11:10:01.668Z,10.18
2022-11-04T11:12:56.146Z,9.07
2022-11-04T11:15:32.913Z,9.13
2022-11-04T11:18:18.520Z,8.85
2022-11-04T11:20:51.850Z,9.73
2022-11-04T11:23:47.655Z,8.88
2022-11-04T11:26:29.686Z,9.20
2022-11-04T11:29:02.623Z,9.00
2022-11-04T11:31:40.682Z,9.73
2022-11-04T11:34:19.563Z,9.02
2022-11-04T11:36:50.265Z,9.05
2022-11-04T11:39:22.230Z,8.50
2022-11-04T11:42:27.488Z,9.38
2022-11-04T11:44:58.378Z,8.57
2022-11-04T11:47:48.068Z,9.02
2022-11-04T11:50:20.549Z,9.02
2022-11-04T11:52:54.380Z,8.38
2022-11-04T11:55:36.256Z,8.50
2022-11-04T12:01:28.783Z,8.63
2022-11-04T12:10:18.453Z,8.00
2022-11-04T12:13:30.710Z,8.07
2022-11-04T12:16:16.174Z,7.70
2022-11-04T12:19:20.890Z,8.43
2022-11-04T12:22:01.072Z,7.70
2022-11-04T12:24:40.075Z,7.85
2022-11-04T12:27:34.252Z,7.93
2022-11-04T12:30:13.278Z,7.32
2022-11-04T12:33:04.264Z,7.47
2022-11-04T12:35:57.790Z,7.20
2022-11-04T12:38:32.358Z,7.78
2022-11-04T12:41:59.261Z,7.93
2022-11-04T12:44:54.368Z,7.70
2022-11-04T12:47:45.118Z,7.45
2022-11-04T12:50:44.549Z,7.30
2022-11-04T12:53:56.031Z,7.50
2022-11-04T12:56:45.806Z,7.85
2022-11-04T12:59:40.575Z,7.22
2022-11-04T13:02:25.704Z,6.50
2022-11-04T13:05:03.430Z,7.88
2022-11-04T13:07:36.425Z,7.82
2022-11-04T13:10:20.858Z,7.40
2022-11-04T13:12:56.365Z,7.57
2022-11-04T13:15:29.101Z,7.07
2022-11-04T13:18:05.827Z,7.18
2022-11-04T13:21:02.507Z,7.43
2022-11-04T13:24:08.667Z,7.18
2022-11-04T13:26:44.841Z,7.38
2022-11-04T13:29:17.520Z,6.60
2022-11-04T13:32:11.506Z,7.25
2022-11-04T13:35:04.062Z,7.35
2022-11-04T13:38:04.511Z,6.78
2022-11-04T13:40:53.161Z,6.38
2022-11-04T13:43:40.047Z,6.18
2022-11-04T13:46:09.062Z,6.47
2022-11-04T13:48:58.499Z,5.28
2022-11-04T13:51:42.385Z,6.28
2022-11-04T13:54:32.787Z,6.63
2022-11-04T13:57:11.358Z,6.30
2022-11-04T14:00:11.679Z,6.22
2022-11-04T14:02:54.400Z,6.45
2022-11-04T14:05:31.710Z,6.68
2022-11-04T14:08:01.885Z,7.13
2022-11-04T14:10:59.952Z,6.47
2022-11-04T14:13:26.982Z,7.38
2022-11-04T14:16:18.848Z,7.72
2022-11-04T14:18:49.249Z,7.43
2022-11-04T14:21:24.976Z,8.38
2022-11-04T14:24:01.922Z,8.75
2022-11-04T14:26:52.028Z,9.27
2022-11-04T14:29:28.360Z,9.40
2022-11-04T14:32:01.118Z,9.57
2022-11-04T14:34:32.421Z,9.25
2022-11-04T14:37:23.388Z,9.30
2022-11-04T14:40:01.171Z,9.63
2022-11-04T14:42:50.584Z,11.55
2022-11-04T14:45:26.220Z,10.77
2022-11-04T14:48:11.855Z,11.43
2022-11-04T14:50:46.696Z,11.27
2022-11-04T14:53:27.038Z,12.00
2022-11-04T14:56:23.974Z,12.57
2022-11-04T14:59:07.152Z,13.48
2022-11-04T15:01:40.159Z,12.10
2022-11-04T15:04:29.756Z,13.45
2022-11-04T15:07:24.661Z,13.20
2022-11-04T15:09:54.906Z,12.82
2022-11-04T15:12:44.519Z,13.00
2022-11-04T15:15:44.688Z,13.60
2022-11-04T15:18:32.273Z,13.73
2022-11-04T15:21:09.198Z,13.45
2022-11-04T15:23:48.188Z,14.80
2022-11-04T15:26:29.340Z,15.30
2022-11-04T15:29:07.737Z,15.68
2022-11-04T15:31:38.995Z,17.83
2022-11-04T15:34:14.503Z,17.77
2022-11-04T15:36:58.587Z,20.27
2022-11-04T15:39:39.560Z,20.48
2022-11-04T15:42:34.035Z,23.02
2022-11-04T15:45:33.648Z,24.50
2022-11-04T15:48:23.024Z,25.60
2022-11-04T15:51:14.395Z,24.70
2022-11-04T15:53:52.189Z,25.35
2022-11-04T15:56:32.524Z,33.55
2022-11-04T15:59:01.146Z,34.53
2022-11-04T16:01:46.956Z,38.55
2022-11-04T16:04:16.712Z,38.85
2022-11-04T16:06:47.925Z,33.50
2022-11-04T16:09:26.840Z,34.42
2022-11-04T16:12:27.165Z,33.70
2022-11-04T16:14:56.334Z,35.95
2022-11-04T16:17:26.559Z,40.78
2022-11-04T16:20:24.211Z,42.15
2022-11-04T16:23:00.647Z,30.60
2022-11-04T16:25:35.356Z,31.20
2022-11-04T16:28:22.461Z,35.13
2022-11-04T16:31:06.381Z,39.83
2022-11-04T16:33:38.362Z,40.05
2022-11-04T16:36:17.425Z,34.03
2022-11-04T16:38:44.708Z,37.22
2022-11-04T16:41:23.402Z,33.78
2022-11-04T16:43:51.714Z,33.63
2022-11-04T16:46:19.102Z,35.42
2022-11-04T16:48:46.487Z,37.33
2022-11-04T16:51:24.375Z,38.17
2022-11-04T16:53:54.306Z,36.60
2022-11-04T16:56:27.621Z,40.38
2022-11-04T16:58:57.744Z,43.03
2022-11-04T17:01:32.533Z,51.22
2022-11-04T17:04:01.592Z,57.47
2022-11-04T17:06:31.074Z,68.40
2022-11-04T17:08:58.376Z,73.85
2022-11-04T17:11:25.576Z,63.75
2022-11-04T17:13:58.171Z,54.33
2022-11-04T17:16:25.520Z,51.90
2022-11-04T17:18:53.889Z,50.53
2022-11-04T17:21:23.931Z,48.35
2022-11-04T17:23:53.403Z,43.88
2022-11-04T17:26:20.753Z,42.20
2022-11-04T17:28:48.984Z,39.58
2022-11-04T17:31:19.859Z,43.55
2022-11-04T17:33:50.565Z,42.13
2022-11-04T17:36:43.096Z,42.10
2022-11-04T17:39:10.261Z,39.53
2022-11-04T17:41:58.778Z,41.28
2022-11-04T17:44:27.495Z,43.08
2022-11-04T17:46:55.716Z,41.13
2022-11-04T17:49:27.887Z,39.22
2022-11-04T17:51:59.338Z,39.88
2022-11-04T17:54:30.666Z,40.20
2022-11-04T17:56:59.010Z,39.45
2022-11-04T17:59:27.795Z,41.35
2022-11-04T18:01:57.440Z,42.03
2022-11-04T18:04:27.038Z,42.03
2022-11-04T18:07:02.639Z,40.97
2022-11-04T18:09:37.677Z,41.90
2022-11-04T18:12:25.372Z,41.63
2022-11-04T18:14:52.930Z,43.08
2022-11-04T18:17:25.945Z,42.03
2022-11-04T18:19:54.506Z,43.60
2022-11-04T18:22:21.889Z,47.45
2022-11-04T18:24:50.738Z,48.97
2022-11-04T18:27:27.056Z,51.20
2022-11-04T18:29:54.625Z,47.47
2022-11-04T18:32:22.769Z,46.45
2022-11-04T18:34:52.194Z,49.83
2022-11-04T18:37:24.800Z,53.15
2022-11-04T18:39:56.037Z,54.13
2022-11-04T18:42:26.454Z,53.72
2022-11-04T18:44:54.128Z,53.05
2022-11-04T18:47:47.855Z,53.97
2022-11-04T18:50:54.438Z,55.85
2022-11-04T18:53:25.932Z,63.08
2022-11-04T18:56:09.929Z,65.53
2022-11-04T18:58:39.881Z,60.22
2022-11-04T19:01:20.938Z,60.03
2022-11-04T19:03:48.685Z,62.17
2022-11-04T19:07:00.875Z,61.85
2022-11-04T19:09:47.772Z,65.15
2022-11-04T19:12:52.222Z,54.85
2022-11-04T19:15:30.624Z,65.50
2022-11-04T19:18:18.412Z,74.15
2022-11-04T19:20:51.773Z,71.65
2022-11-04T19:23:35.108Z,67.85
2022-11-04T19:26:15.740Z,70.20
2022-11-04T19:28:50.928Z,62.00
2022-11-04T19:31:50.519Z,58.60
2022-11-04T19:34:19.601Z,58.67
2022-11-04T19:36:48.292Z,57.45
2022-11-04T19:39:49.366Z,54.63
2022-11-04T19:42:42.117Z,54.60
2022-11-04T19:45:09.788Z,56.15
2022-11-04T19:47:39.296Z,54.35
2022-11-04T19:50:07.624Z,50.67
2022-11-04T19:53:07.629Z,51.88
2022-11-04T19:55:36.769Z,50.83
2022-11-04T19:58:06.628Z,54.05
2022-11-04T20:00:48.211Z,55.95
2022-11-04T20:03:16.350Z,56.70
2022-11-04T20:05:50.854Z,60.83
2022-11-04T20:08:23.103Z,59.20
2022-11-04T20:11:03.882Z,54.17
2022-11-04T20:13:45.455Z,53.30
2022-11-04T20:16:28.322Z,50.97
2022-11-04T20:19:07.019Z,51.50
2022-11-04T20:21:44.978Z,49.35
2022-11-04T20:24:18.961Z,49.97
2022-11-04T20:26:54.016Z,49.97
2022-11-04T20:29:35.510Z,49.45
2022-11-04T20:32:02.927Z,50.28
2022-11-04T20:34:51.174Z,53.22
2022-11-04T20:37:26.919Z,53.63
2022-11-04T20:39:54.894Z,54.22
2022-11-04T20:42:23.695Z,50.42
2022-11-04T20:45:16.906Z,54.60
2022-11-04T20:48:13.533Z,56.40
2022-11-04T20:50:49.895Z,56.28
2022-11-04T20:53:23.306Z,55.17
2022-11-04T20:55:55.132Z,56.47
2022-11-04T20:58:24.717Z,47.83
2022-11-04T21:01:11.686Z,54.72
2022-11-04T21:04:20.470Z,55.30
2022-11-04T21:07:11.892Z,52.80
2022-11-04T21:09:39.734Z,50.33
2022-11-04T21:12:09.870Z,49.83
2022-11-04T21:14:38.676Z,46.95
2022-11-04T21:17:23.096Z,43.90
2022-11-04T21:20:00.917Z,40.22
2022-11-04T21:22:30.938Z,40.55
2022-11-04T21:25:03.417Z,36.72
2022-11-04T21:28:06.422Z,32.40
2022-11-04T21:30:54.701Z,33.30
2022-11-04T21:33:42.801Z,29.52
2022-11-04T21:36:13.587Z,27.45
2022-11-04T21:38:45.176Z,26.98
2022-11-04T21:41:25.500Z,27.90
2022-11-04T21:44:00.634Z,25.73
2022-11-04T21:46:30.676Z,24.35
2022-11-04T21:49:07.386Z,24.80
2022-11-04T21:51:35.179Z,22.75
2022-11-04T21:54:10.477Z,20.80
2022-11-04T21:56:43.115Z,19.15
2022-11-04T21:59:17.080Z,18.55
2022-11-04T22:01:53.377Z,15.93
2022-11-04T22:04:22.418Z,16.63
2022-11-04T22:06:52.655Z,17.33
2022-11-04T22:09:19.692Z,17.70
2022-11-04T22:11:50.945Z,14.63
2022-11-04T22:14:18.961Z,15.40
2022-11-04T22:16:46.083Z,14.43
2022-11-04T22:19:15.949Z,11.45
2022-11-04T22:21:46.728Z,11.23
2022-11-04T22:24:29.984Z,9.13
2022-11-04T22:26:58.104Z,7.15
2022-11-04T22:29:30.991Z,7.47
2022-11-04T22:31:58.134Z,7.38
2022-11-04T22:34:26.421Z,6.15
2022-11-04T22:37:01.547Z,5.50
2022-11-04T22:39:32.555Z,6.00
2022-11-04T22:42:00.777Z,6.18
2022-11-04T22:44:30.684Z,5.88
2022-11-04T22:46:57.831Z,5.63
2022-11-04T22:49:54.806Z,5.07
2022-11-04T22:52:28.017Z,4.90
2022-11-04T22:55:05.727Z,5.63
2022-11-04T22:57:35.785Z,5.40
2022-11-04T23:00:06.231Z,5.43
2022-11-04T23:02:45.797Z,5.68
2022-11-04T23:05:19.000Z,5.60
2022-11-04T23:07:46.026Z,6.30
2022-11-04T23:10:32.402Z,6.85
2022-11-04T23:13:31.040Z,5.75
2022-11-04T23:16:19.671Z,7.90
2022-11-04T23:19:03.662Z,5.80
2022-11-04T23:24:36.885Z,6.22
2022-11-04T23:27:09.766Z,6.65
2022-11-04T23:29:55.425Z,6.20
2022-11-04T23:32:27.320Z,6.13
2022-11-04T23:35:31.341Z,5.90
2022-11-04T23:38:07.627Z,5.60
2022-11-04T23:40:35.819Z,5.53
2022-11-04T23:43:11.890Z,5.63
2022-11-04T23:46:21.939Z,5.38
2022-11-04T23:49:14.420Z,5.22
2022-11-04T23:52:26.907Z,5.50
2022-11-04T23:55:19.209Z,6.28
2022-11-04T23:58:07.570Z,5.70
